Time;durP1;ratioP1;P1;durP2;ratioP2;P2;SDS_P1;SDS_P2;PMS_P1;PMS_P2;Temp;Humidity;BMP_temperature;BMP_pressure;BME280_temperature;BME280_humidity;BME280_pressure;Samples;Min_cycle;Max_cycle;Signal;HPM_P1;HPM_P2
2022/04/03 00:02:03;;;;;;;;;;;1.90;99.90;;;;;;5092792;28;20019;-75
2022/04/03 00:04:29;;;;;;;;;;;1.90;99.90;;;;;;5092560;28;19908;-75
2022/04/03 00:06:55;;;;;;;;;;;2.00;99.90;;;;;;5091642;28;20447;-75
2022/04/03 00:09:20;;;;;;;;;;;2.00;99.90;;;;;;5091806;28;19916;-75
2022/04/03 00:11:46;;;;;;;;;;;2.00;99.90;;;;;;5092586;28;20000;-75
2022/04/03 00:14:12;;;;;;;;;;;2.00;99.90;;;;;;5092923;28;19908;-75
2022/04/03 00:16:39;;;;;;;;;;;2.00;99.90;;;;;;5092707;28;20349;-75
2022/04/03 00:19:04;;;;;;;;;;;2.10;99.90;;;;;;5092857;28;19915;-75
2022/04/03 00:21:30;;;;;;;;;;;2.00;99.90;;;;;;5090603;28;20003;-75
2022/04/03 00:23:55;;;;;;;;;;;2.00;99.90;;;;;;5092467;28;19916;-75
2022/04/03 00:26:21;;;;;;;;;;;1.90;99.90;;;;;;5092250;28;20345;-75
2022/04/03 00:28:46;;;;;;;;;;;1.90;99.90;;;;;;5092688;28;19982;-75
2022/04/03 00:31:12;;;;;;;;;;;1.90;99.90;;;;;;5092754;28;19912;-75
2022/04/03 00:33:38;;;;;;;;;;;1.90;99.90;;;;;;5090958;28;20288;-75
2022/04/03 00:36:04;;;;;;;;;;;1.80;99.90;;;;;;5092959;28;20359;-75
2022/04/03 00:38:30;;;;;;;;;;;1.80;99.90;;;;;;5091685;28;19912;-75
2022/04/03 00:40:56;;;;;;;;;;;1.70;99.90;;;;;;5092129;28;20007;-75
2022/04/03 00:43:21;;;;;;;;;;;1.80;99.90;;;;;;5091909;28;19908;-75
2022/04/03 00:45:48;;;;;;;;;;;1.80;99.90;;;;;;5091562;28;19915;-75
2022/04/03 00:48:14;;;;;;;;;;;1.80;99.90;;;;;;5091077;28;19916;-75
2022/04/03 00:50:39;;;;;;;;;;;1.80;99.90;;;;;;5091793;28;19912;-75
2022/04/03 00:53:05;;;;;;;;;;;1.70;99.90;;;;;;5092563;28;20315;-75
2022/04/03 00:55:31;;;;;;;;;;;1.70;99.90;;;;;;5090147;28;19908;-75
2022/04/03 00:58:00;;;;;;;;;;;1.60;99.90;;;;;;5092302;28;20353;-75
2022/04/03 01:00:26;;;;;;;;;;;1.60;99.90;;;;;;5091815;28;19967;-75
2022/04/03 01:02:52;;;;;;;;;;;1.60;99.90;;;;;;5092082;28;20343;-75
2022/04/03 01:05:18;;;;;;;;;;;1.50;99.90;;;;;;5091766;28;19908;-75
2022/04/03 01:07:43;;;;;;;;;;;1.50;99.90;;;;;;5092328;28;19912;-75
2022/04/03 01:10:09;;;;;;;;;;;1.50;99.90;;;;;;5092046;28;19942;-75
2022/04/03 01:12:39;;;;;;;;;;;1.50;99.90;;;;;;5091462;28;19913;-75
2022/04/03 01:15:04;;;;;;;;;;;1.50;99.90;;;;;;5092253;28;19948;-75
2022/04/03 01:17:30;;;;;;;;;;;1.50;99.90;;;;;;5091795;28;20321;-75
2022/04/03 01:19:55;;;;;;;;;;;1.40;99.90;;;;;;5092466;28;19908;-75
2022/04/03 01:22:21;;;;;;;;;;;1.40;99.90;;;;;;5091565;28;19908;-75
2022/04/03 01:24:47;;;;;;;;;;;1.30;99.90;;;;;;5091422;28;20373;-76
2022/04/03 01:27:12;;;;;;;;;;;1.20;99.90;;;;;;5092060;28;19934;-75
2022/04/03 01:29:38;;;;;;;;;;;1.20;99.90;;;;;;5091358;28;19916;-75
2022/04/03 01:32:04;;;;;;;;;;;1.20;99.90;;;;;;5091850;28;20384;-75
2022/04/03 01:34:30;;;;;;;;;;;1.20;99.90;;;;;;5096866;28;19999;-75
2022/04/03 01:36:56;;;;;;;;;;;1.20;99.90;;;;;;5096655;28;19996;-76
2022/04/03 01:39:21;;;;;;;;;;;1.20;99.90;;;;;;5095634;28;19915;-75
2022/04/03 01:41:47;;;;;;;;;;;1.20;99.90;;;;;;5095124;28;20561;-75
2022/04/03 01:44:13;;;;;;;;;;;1.10;99.90;;;;;;5096452;28;19912;-75
2022/04/03 01:46:39;;;;;;;;;;;1.10;99.90;;;;;;5095840;28;19904;-75
2022/04/03 01:49:05;;;;;;;;;;;1.10;99.90;;;;;;5095931;28;19916;-75
2022/04/03 01:51:33;;;;;;;;;;;1.00;99.90;;;;;;5095739;28;19909;-75
2022/04/03 01:53:59;;;;;;;;;;;1.00;99.90;;;;;;5095038;28;19950;-75
2022/04/03 01:56:25;;;;;;;;;;;1.00;99.90;;;;;;5095539;28;20432;-75
2022/04/03 01:58:51;;;;;;;;;;;1.00;99.90;;;;;;5096287;28;19912;-75
2022/04/03 02:01:17;;;;;;;;;;;1.00;99.90;;;;;;5096086;28;19920;-75
2022/04/03 02:03:46;;;;;;;;;;;1.00;99.90;;;;;;5094901;28;21194;-75
2022/04/03 02:06:13;;;;;;;;;;;0.90;99.90;;;;;;5095904;28;19908;-75
2022/04/03 02:08:39;;;;;;;;;;;0.90;99.90;;;;;;5094189;28;19912;-75
2022/04/03 02:11:04;;;;;;;;;;;0.90;99.90;;;;;;5095676;28;19919;-75
2022/04/03 02:13:30;;;;;;;;;;;0.90;99.90;;;;;;5095444;28;19908;-76
2022/04/03 02:15:55;;;;;;;;;;;0.90;99.90;;;;;;5095875;28;19918;-75
2022/04/03 02:18:21;;;;;;;;;;;0.80;99.90;;;;;;5094150;28;20273;-75
2022/04/03 02:20:46;;;;;;;;;;;0.80;99.90;;;;;;5095781;28;19954;-75
2022/04/03 02:23:12;;;;;;;;;;;0.80;99.90;;;;;;5095334;28;19943;-76
2022/04/03 02:25:38;;;;;;;;;;;0.80;99.90;;;;;;5095297;28;19919;-76
2022/04/03 02:28:04;;;;;;;;;;;0.70;99.90;;;;;;5095712;28;19912;-75
2022/04/03 02:30:30;;;;;;;;;;;0.80;99.90;;;;;;5094939;28;20392;-75
2022/04/03 02:32:56;;;;;;;;;;;0.80;99.90;;;;;;5095528;28;19918;-75
2022/04/03 02:35:22;;;;;;;;;;;0.90;99.90;;;;;;5094249;28;19912;-75
2022/04/03 02:37:48;;;;;;;;;;;0.90;99.90;;;;;;5095587;28;19915;-75
2022/04/03 02:40:15;;;;;;;;;;;0.90;99.90;;;;;;5095450;28;20304;-75
2022/04/03 02:42:41;;;;;;;;;;;0.90;99.90;;;;;;5094641;28;19912;-75
2022/04/03 02:45:08;;;;;;;;;;;0.90;99.90;;;;;;5094986;28;19916;-76
2022/04/03 02:47:33;;;;;;;;;;;1.00;99.90;;;;;;5093389;28;20357;-75
2022/04/03 02:49:59;;;;;;;;;;;1.00;99.90;;;;;;5093844;28;19918;-75
2022/04/03 02:52:25;;;;;;;;;;;0.90;99.90;;;;;;5094807;28;19945;-76
2022/04/03 02:54:50;;;;;;;;;;;0.90;99.90;;;;;;5095707;28;19908;-76
2022/04/03 02:57:16;;;;;;;;;;;0.90;99.90;;;;;;5094700;28;19912;-76
2022/04/03 02:59:42;;;;;;;;;;;0.80;99.90;;;;;;5094229;28;19920;-75
2022/04/03 03:02:08;;;;;;;;;;;0.90;99.90;;;;;;5094782;28;20285;-75
2022/04/03 03:04:35;;;;;;;;;;;1.00;99.90;;;;;;5094136;28;20273;-75
2022/04/03 03:07:01;;;;;;;;;;;1.00;99.90;;;;;;5094684;28;19912;-76
2022/04/03 03:09:27;;;;;;;;;;;1.00;99.90;;;;;;5094449;28;19912;-76
2022/04/03 03:11:52;;;;;;;;;;;1.00;99.90;;;;;;5094260;28;20270;-75
2022/04/03 03:14:19;;;;;;;;;;;0.90;99.90;;;;;;5093970;28;19908;-75
2022/04/03 03:16:44;;;;;;;;;;;0.90;99.90;;;;;;5093597;28;19912;-76
2022/04/03 03:19:10;;;;;;;;;;;0.80;99.90;;;;;;5094411;28;20315;-76
2022/04/03 03:21:36;;;;;;;;;;;0.70;99.90;;;;;;5093836;28;20007;-75
2022/04/03 03:24:02;;;;;;;;;;;0.60;99.90;;;;;;5094551;28;19915;-75
2022/04/03 03:26:27;;;;;;;;;;;0.60;99.90;;;;;;5093817;28;19912;-75
2022/04/03 03:28:53;;;;;;;;;;;0.50;99.90;;;;;;5094570;28;19912;-75
2022/04/03 03:31:19;;;;;;;;;;;0.50;99.90;;;;;;5094401;28;19923;-76
2022/04/03 03:33:45;;;;;;;;;;;0.50;99.90;;;;;;5093442;28;19908;-75
2022/04/03 03:36:11;;;;;;;;;;;0.50;99.90;;;;;;5094080;28;20304;-76
2022/04/03 03:38:37;;;;;;;;;;;0.50;99.90;;;;;;5093688;28;19908;-75
2022/04/03 03:41:03;;;;;;;;;;;0.50;99.90;;;;;;5094121;28;20007;-76
2022/04/03 03:43:29;;;;;;;;;;;0.50;99.90;;;;;;5093526;28;19914;-76
2022/04/03 03:45:55;;;;;;;;;;;0.60;99.90;;;;;;5093944;28;19908;-75
2022/04/03 03:48:20;;;;;;;;;;;0.60;99.90;;;;;;5093982;28;20273;-76
2022/04/03 03:50:46;;;;;;;;;;;0.60;99.90;;;;;;5093499;28;19965;-76
2022/04/03 03:53:11;;;;;;;;;;;0.50;99.90;;;;;;5094023;28;19962;-76
2022/04/03 03:55:37;;;;;;;;;;;0.50;99.90;;;;;;5092591;28;19912;-75
2022/04/03 03:58:03;;;;;;;;;;;0.50;99.90;;;;;;5093511;28;19908;-76
2022/04/03 04:00:28;;;;;;;;;;;0.40;99.90;;;;;;5092102;28;20254;-75
2022/04/03 04:02:54;;;;;;;;;;;0.40;99.90;;;;;;5093754;28;19961;-76
2022/04/03 04:05:20;;;;;;;;;;;0.40;99.90;;;;;;5093528;28;20350;-75
2022/04/03 04:07:46;;;;;;;;;;;0.40;99.90;;;;;;5093243;28;19916;-76
2022/04/03 04:10:12;;;;;;;;;;;0.30;99.90;;;;;;5095754;28;19912;-75
2022/04/03 04:12:41;;;;;;;;;;;0.40;99.90;;;;;;5093825;28;20023;-76
2022/04/03 04:15:08;;;;;;;;;;;0.40;99.90;;;;;;5093779;28;19935;-76
2022/04/03 04:17:38;;;;;;;;;;;0.30;99.90;;;;;;5092787;28;20374;-76
2022/04/03 04:20:13;;;;;;;;;;;0.30;99.90;;;;;;5093640;28;19962;-76
2022/04/03 04:22:39;;;;;;;;;;;0.40;99.90;;;;;;5092946;28;19952;-76
2022/04/03 04:25:05;;;;;;;;;;;0.40;99.90;;;;;;5092243;28;20324;-76
2022/04/03 04:27:31;;;;;;;;;;;0.40;99.90;;;;;;5091335;28;19916;-76
2022/04/03 04:29:57;;;;;;;;;;;0.40;99.90;;;;;;5093368;28;19912;-76
2022/04/03 04:32:23;;;;;;;;;;;0.40;99.90;;;;;;5093172;28;20396;-75
2022/04/03 04:34:50;;;;;;;;;;;0.30;99.90;;;;;;5092776;28;19943;-75
2022/04/03 04:37:16;;;;;;;;;;;0.30;99.90;;;;;;5093275;28;19918;-75
2022/04/03 04:39:42;;;;;;;;;;;0.30;99.90;;;;;;5091466;28;19908;-75
2022/04/03 04:42:08;;;;;;;;;;;0.30;99.90;;;;;;5094056;28;19915;-75
2022/04/03 04:44:33;;;;;;;;;;;0.30;99.90;;;;;;5092942;28;19914;-75
2022/04/03 04:46:59;;;;;;;;;;;0.30;99.90;;;;;;5093136;28;19912;-75
2022/04/03 04:49:25;;;;;;;;;;;0.30;99.90;;;;;;5091761;28;20329;-76
2022/04/03 04:51:50;;;;;;;;;;;0.30;99.90;;;;;;5092357;28;20096;-76
2022/04/03 04:54:16;;;;;;;;;;;0.30;99.90;;;;;;5092986;28;19915;-76
2022/04/03 04:56:42;;;;;;;;;;;0.40;99.90;;;;;;5092523;28;19908;-76
2022/04/03 04:59:07;;;;;;;;;;;0.30;99.90;;;;;;5091515;28;19915;-76
2022/04/03 05:01:33;;;;;;;;;;;0.30;99.90;;;;;;5092627;28;19927;-76
2022/04/03 05:03:58;;;;;;;;;;;0.30;99.90;;;;;;5093287;28;20242;-76
2022/04/03 05:06:26;;;;;;;;;;;0.30;99.90;;;;;;5093522;28;20272;-76
2022/04/03 05:08:52;;;;;;;;;;;0.20;99.90;;;;;;5096400;28;19939;-76
2022/04/03 05:11:18;;;;;;;;;;;0.20;99.90;;;;;;5097010;28;19954;-76
2022/04/03 05:13:44;;;;;;;;;;;0.20;99.90;;;;;;5096468;28;19946;-76
2022/04/03 05:16:10;;;;;;;;;;;0.20;99.90;;;;;;5096792;28;19915;-76
2022/04/03 05:18:36;;;;;;;;;;;0.20;99.90;;;;;;5095067;28;20007;-76
2022/04/03 05:21:02;;;;;;;;;;;0.20;99.90;;;;;;5097028;28;19967;-76
2022/04/03 05:23:28;;;;;;;;;;;0.10;99.90;;;;;;5096587;28;19941;-75
2022/04/03 05:25:54;;;;;;;;;;;0.10;99.90;;;;;;5094495;28;19938;-75
2022/04/03 05:28:21;;;;;;;;;;;0.10;99.90;;;;;;5096666;28;20324;-76
2022/04/03 05:30:47;;;;;;;;;;;0.10;99.90;;;;;;5095838;28;20369;-76
2022/04/03 05:33:14;;;;;;;;;;;0.10;99.90;;;;;;5096661;28;19912;-76
2022/04/03 05:35:40;;;;;;;;;;;0.10;99.90;;;;;;5096045;28;19998;-76
2022/04/03 05:38:05;;;;;;;;;;;0.00;99.90;;;;;;5096840;28;19912;-76
2022/04/03 05:40:31;;;;;;;;;;;0.00;99.90;;;;;;5096467;28;19931;-76
2022/04/03 05:42:56;;;;;;;;;;;0.00;99.90;;;;;;5095949;28;20470;-76
2022/04/03 05:45:22;;;;;;;;;;;0.00;99.90;;;;;;5095071;28;19908;-76
2022/04/03 05:47:48;;;;;;;;;;;0.00;99.90;;;;;;5095559;28;19953;-76
2022/04/03 05:50:16;;;;;;;;;;;0.00;99.90;;;;;;5096328;28;19912;-76
2022/04/03 05:52:43;;;;;;;;;;;0.00;99.90;;;;;;5094478;28;19973;-76
2022/04/03 05:55:09;;;;;;;;;;;0.00;99.90;;;;;;5095987;28;20365;-76
2022/04/03 05:57:35;;;;;;;;;;;0.00;99.90;;;;;;5097083;28;19908;-76
2022/04/03 06:00:00;;;;;;;;;;;0.10;99.90;;;;;;5095951;28;20286;-76
2022/04/03 06:02:26;;;;;;;;;;;0.00;99.90;;;;;;5095973;28;19908;-76
2022/04/03 06:04:52;;;;;;;;;;;0.00;99.90;;;;;;5095355;28;19998;-76
2022/04/03 06:07:18;;;;;;;;;;;0.00;99.90;;;;;;5095665;28;20011;-76
2022/04/03 06:09:44;;;;;;;;;;;0.00;99.90;;;;;;5095488;28;19920;-76
2022/04/03 06:12:10;;;;;;;;;;;0.10;99.90;;;;;;5096249;28;19908;-76
2022/04/03 06:14:36;;;;;;;;;;;0.10;99.90;;;;;;5095917;28;19918;-76
2022/04/03 06:17:01;;;;;;;;;;;0.10;99.90;;;;;;5095088;28;19915;-76
2022/04/03 06:19:27;;;;;;;;;;;0.10;99.90;;;;;;5095228;28;19908;-76
2022/04/03 06:21:52;;;;;;;;;;;0.10;99.90;;;;;;5095126;28;19908;-75
2022/04/03 06:24:18;;;;;;;;;;;0.20;99.90;;;;;;5095660;28;19915;-75
2022/04/03 06:26:44;;;;;;;;;;;0.20;99.90;;;;;;5095302;28;19908;-76
2022/04/03 06:29:09;;;;;;;;;;;0.20;99.90;;;;;;5095337;28;20002;-75
2022/04/03 06:31:35;;;;;;;;;;;0.30;99.90;;;;;;5095172;28;19923;-75
2022/04/03 06:34:02;;;;;;;;;;;0.40;99.90;;;;;;5094920;28;19974;-75
2022/04/03 06:36:27;;;;;;;;;;;0.60;99.90;;;;;;5095359;28;19908;-75
2022/04/03 06:38:53;;;;;;;;;;;0.60;99.90;;;;;;5095169;28;19915;-75
2022/04/03 06:41:18;;;;;;;;;;;0.70;99.90;;;;;;5095340;28;20322;-75
2022/04/03 06:43:44;;;;;;;;;;;0.90;99.90;;;;;;5094462;28;19909;-75
2022/04/03 06:46:10;;;;;;;;;;;1.10;99.90;;;;;;5095285;28;19908;-75
2022/04/03 06:48:35;;;;;;;;;;;1.10;99.90;;;;;;5092856;28;19924;-75
2022/04/03 06:51:01;;;;;;;;;;;1.30;99.90;;;;;;5093202;28;19923;-74
2022/04/03 06:53:27;;;;;;;;;;;1.50;99.90;;;;;;5094395;28;19961;-74
2022/04/03 06:55:53;;;;;;;;;;;1.60;99.90;;;;;;5094291;28;19916;-75
2022/04/03 06:58:18;;;;;;;;;;;1.70;99.90;;;;;;5094801;28;19909;-75
2022/04/03 07:00:44;;;;;;;;;;;1.70;99.90;;;;;;5092117;28;19928;-75
2022/04/03 07:03:09;;;;;;;;;;;2.00;99.90;;;;;;5094903;28;19931;-75
2022/04/03 07:05:35;;;;;;;;;;;2.10;99.90;;;;;;5094364;28;19944;-75
2022/04/03 07:08:01;;;;;;;;;;;2.20;99.90;;;;;;5093759;28;19938;-75
2022/04/03 07:10:27;;;;;;;;;;;2.30;99.90;;;;;;5093139;28;19919;-75
2022/04/03 07:12:55;;;;;;;;;;;2.50;99.90;;;;;;5093871;28;19908;-75
2022/04/03 07:15:20;;;;;;;;;;;2.70;99.90;;;;;;5094399;28;19952;-75
2022/04/03 07:17:46;;;;;;;;;;;2.80;99.90;;;;;;5093620;28;19908;-74
2022/04/03 07:20:14;;;;;;;;;;;2.90;99.90;;;;;;5094053;28;19908;-74
2022/04/03 07:22:43;;;;;;;;;;;3.10;99.90;;;;;;5093379;28;19908;-74
2022/04/03 07:25:09;;;;;;;;;;;3.30;99.90;;;;;;5093867;28;20003;-74
2022/04/03 07:27:35;;;;;;;;;;;3.40;99.90;;;;;;5094053;28;19916;-74
2022/04/03 07:30:00;;;;;;;;;;;3.50;99.90;;;;;;5092204;28;19923;-74
2022/04/03 07:32:26;;;;;;;;;;;3.60;99.90;;;;;;5094482;28;19908;-74
2022/04/03 07:34:52;;;;;;;;;;;3.70;99.90;;;;;;5093456;28;19995;-75
2022/04/03 07:37:17;;;;;;;;;;;3.80;99.90;;;;;;5093960;28;19995;-75
2022/04/03 07:39:43;;;;;;;;;;;3.90;99.90;;;;;;5091881;28;19916;-75
2022/04/03 07:42:09;;;;;;;;;;;4.00;99.90;;;;;;5093724;28;20011;-75
2022/04/03 07:44:34;;;;;;;;;;;4.20;99.90;;;;;;5093727;28;19908;-75
2022/04/03 07:47:00;;;;;;;;;;;4.20;99.90;;;;;;5093542;28;19954;-75
2022/04/03 07:49:26;;;;;;;;;;;4.30;99.90;;;;;;5093231;28;20307;-75
2022/04/03 07:51:51;;;;;;;;;;;4.30;99.90;;;;;;5093025;28;19908;-75
2022/04/03 07:54:17;;;;;;;;;;;4.50;99.90;;;;;;5093753;28;19916;-75
2022/04/03 07:56:42;;;;;;;;;;;4.60;99.90;;;;;;5091801;28;20273;-75
2022/04/03 07:59:08;;;;;;;;;;;4.80;99.90;;;;;;5093522;28;20272;-73
2022/04/03 08:01:34;;;;;;;;;;;5.00;99.90;;;;;;5093451;28;19998;-75
2022/04/03 08:03:59;;;;;;;;;;;5.20;99.90;;;;;;5092874;28;20476;-75
2022/04/03 08:06:25;;;;;;;;;;;5.30;99.90;;;;;;5093418;28;19919;-74
2022/04/03 08:08:51;;;;;;;;;;;5.40;99.90;;;;;;5091953;28;19943;-74
2022/04/03 08:11:17;;;;;;;;;;;5.50;99.90;;;;;;5088153;28;20007;-73
2022/04/03 08:13:42;;;;;;;;;;;5.60;99.90;;;;;;5084037;28;19908;-73
2022/04/03 08:16:08;;;;;;;;;;;5.70;99.90;;;;;;5092785;28;20351;-73
2022/04/03 08:18:33;;;;;;;;;;;5.90;99.90;;;;;;5092780;28;19923;-73
2022/04/03 08:20:59;;;;;;;;;;;6.10;99.90;;;;;;5092442;28;20546;-74
2022/04/03 08:23:25;;;;;;;;;;;6.20;99.90;;;;;;5093131;28;19912;-73
2022/04/03 08:25:50;;;;;;;;;;;6.30;99.90;;;;;;5092457;28;20003;-73
2022/04/03 08:28:17;;;;;;;;;;;6.50;99.90;;;;;;5092948;28;19943;-74
2022/04/03 08:30:42;;;;;;;;;;;6.60;99.90;;;;;;5092343;28;19912;-74
2022/04/03 08:33:09;;;;;;;;;;;6.70;99.90;;;;;;5093769;28;19908;-74
2022/04/03 08:35:38;;;;;;;;;;;6.80;99.90;;;;;;5093116;28;19909;-74
2022/04/03 08:38:05;;;;;;;;;;;7.00;99.90;;;;;;5092395;28;19908;-74
2022/04/03 08:40:31;;;;;;;;;;;7.10;99.90;;;;;;5091504;28;19908;-74
2022/04/03 08:42:57;;;;;;;;;;;7.20;99.90;;;;;;5091895;28;19947;-74
2022/04/03 08:45:24;;;;;;;;;;;7.30;99.90;;;;;;5091011;28;20414;-74
2022/04/03 08:47:50;;;;;;;;;;;7.40;99.90;;;;;;5092049;28;19916;-75
2022/04/03 08:50:16;;;;;;;;;;;7.50;99.90;;;;;;5092462;28;20016;-74
2022/04/03 08:52:46;;;;;;;;;;;7.60;99.90;;;;;;5090588;28;19908;-75
2022/04/03 08:55:12;;;;;;;;;;;7.60;99.90;;;;;;5092678;28;19908;-75
2022/04/03 08:57:38;;;;;;;;;;;7.60;99.90;;;;;;5092652;28;20356;-75
2022/04/03 09:00:04;;;;;;;;;;;7.50;99.90;;;;;;5091661;28;20392;-74
2022/04/03 09:02:30;;;;;;;;;;;7.50;99.90;;;;;;5091268;28;19976;-74
2022/04/03 09:04:56;;;;;;;;;;;7.60;99.90;;;;;;5091925;28;20007;-74
2022/04/03 09:07:21;;;;;;;;;;;7.80;99.90;;;;;;5092145;28;20379;-74
2022/04/03 09:09:57;;;;;;;;;;;7.70;99.90;;;;;;5091444;28;19913;-74
2022/04/03 09:12:22;;;;;;;;;;;7.80;99.90;;;;;;5092116;28;19908;-73
2022/04/03 09:14:49;;;;;;;;;;;7.80;99.90;;;;;;5091641;28;20345;-74
2022/04/03 09:17:33;;;;;;;;;;;7.80;99.90;;;;;;5092286;28;19908;-75
2022/04/03 09:20:00;;;;;;;;;;;8.00;99.90;;;;;;5091755;28;19918;-74
2022/04/03 09:22:28;;;;;;;;;;;7.90;99.90;;;;;;5092531;28;20357;-74
2022/04/03 09:24:55;;;;;;;;;;;8.00;99.90;;;;;;5091810;28;19908;-74
2022/04/03 09:27:22;;;;;;;;;;;8.00;99.90;;;;;;5092112;28;19916;-74
2022/04/03 09:29:59;;;;;;;;;;;8.00;99.90;;;;;;5091511;28;20361;-74
2022/04/03 09:32:26;;;;;;;;;;;8.10;99.90;;;;;;5092244;28;20362;-74
2022/04/03 09:34:55;;;;;;;;;;;8.10;99.90;;;;;;5091875;28;19909;-74
2022/04/03 09:37:22;;;;;;;;;;;8.20;99.90;;;;;;5092002;28;19908;-74
2022/04/03 09:39:47;;;;;;;;;;;8.20;99.90;;;;;;5091875;28;19915;-75
2022/04/03 09:42:15;;;;;;;;;;;8.20;99.90;;;;;;5092333;28;19908;-74
2022/04/03 09:44:42;;;;;;;;;;;8.30;99.90;;;;;;5092543;28;19959;-75
2022/04/03 09:47:20;;;;;;;;;;;8.40;99.90;;;;;;5090653;28;19931;-75
2022/04/03 09:49:50;;;;;;;;;;;8.40;99.90;;;;;;5091714;28;20014;-75
2022/04/03 09:52:35;;;;;;;;;;;8.50;99.90;;;;;;5092773;28;19912;-76
2022/04/03 09:55:05;;;;;;;;;;;8.60;99.90;;;;;;5094476;28;19994;-76
2022/04/03 09:57:32;;;;;;;;;;;8.70;99.90;;;;;;5095641;28;19908;-74
2022/04/03 09:59:57;;;;;;;;;;;8.80;99.90;;;;;;5094927;28;19927;-75
2022/04/03 10:02:24;;;;;;;;;;;8.80;99.90;;;;;;5095515;28;19912;-75
2022/04/03 10:04:51;;;;;;;;;;;8.90;99.90;;;;;;5095026;28;20246;-74
2022/04/03 10:07:17;;;;;;;;;;;8.90;99.90;;;;;;5095388;28;19912;-74
2022/04/03 10:09:49;;;;;;;;;;;9.00;99.90;;;;;;5095615;28;19921;-75
2022/04/03 10:12:16;;;;;;;;;;;9.00;99.90;;;;;;5095252;28;20499;-75
2022/04/03 10:14:45;;;;;;;;;;;9.00;99.90;;;;;;5095512;28;19994;-75
2022/04/03 10:17:11;;;;;;;;;;;9.00;99.90;;;;;;5094908;28;20269;-75
2022/04/03 10:19:37;;;;;;;;;;;9.10;99.90;;;;;;5095405;28;19931;-75
2022/04/03 10:22:03;;;;;;;;;;;9.10;99.90;;;;;;5095027;28;20416;-75
2022/04/03 10:24:30;;;;;;;;;;;9.30;99.90;;;;;;5095103;28;19974;-74
2022/04/03 10:27:14;;;;;;;;;;;9.30;99.90;;;;;;5094818;28;20011;-75
2022/04/03 10:29:41;;;;;;;;;;;9.40;99.90;;;;;;5095260;28;19916;-75
2022/04/03 10:32:07;;;;;;;;;;;9.30;99.90;;;;;;5094636;28;19962;-74
2022/04/03 10:34:46;;;;;;;;;;;9.10;99.90;;;;;;5094122;28;19908;-74
2022/04/03 10:37:25;;;;;;;;;;;9.20;99.90;;;;;;5094936;28;19915;-74
2022/04/03 10:39:56;;;;;;;;;;;9.10;99.90;;;;;;5094379;28;19997;-75
2022/04/03 10:42:25;;;;;;;;;;;9.20;99.90;;;;;;5094762;28;20369;-75
2022/04/03 10:45:18;;;;;;;;;;;9.20;99.90;;;;;;5094428;28;20002;-75
2022/04/03 10:47:44;;;;;;;;;;;9.30;99.90;;;;;;5086216;28;20408;-75
2022/04/03 10:50:10;;;;;;;;;;;9.40;99.90;;;;;;5094270;28;19973;-75
2022/04/03 10:52:39;;;;;;;;;;;9.50;99.90;;;;;;5094470;28;20276;-75
2022/04/03 10:55:23;;;;;;;;;;;9.50;99.90;;;;;;5094226;28;20272;-75
2022/04/03 10:57:54;;;;;;;;;;;9.50;99.90;;;;;;5094331;28;19908;-75
2022/04/03 11:00:19;;;;;;;;;;;9.40;99.90;;;;;;5094747;28;20315;-75
2022/04/03 11:02:57;;;;;;;;;;;9.50;99.90;;;;;;5094866;28;19919;-75
2022/04/03 11:05:28;;;;;;;;;;;9.60;99.90;;;;;;5094419;28;20045;-75
2022/04/03 11:08:14;;;;;;;;;;;9.60;99.90;;;;;;5094102;28;19958;-75
2022/04/03 11:10:45;;;;;;;;;;;9.80;99.90;;;;;;5094176;28;20304;-75
2022/04/03 11:13:13;;;;;;;;;;;9.90;99.90;;;;;;5092524;28;19908;-75
2022/04/03 11:15:53;;;;;;;;;;;10.00;99.90;;;;;;5093949;28;19908;-75
2022/04/03 11:18:29;;;;;;;;;;;10.10;99.90;;;;;;5094172;28;19909;-75
2022/04/03 11:21:07;;;;;;;;;;;10.20;99.90;;;;;;5093717;28;19908;-75
2022/04/03 11:23:34;;;;;;;;;;;10.20;99.90;;;;;;5094260;28;20345;-75
2022/04/03 11:26:00;;;;;;;;;;;10.30;99.90;;;;;;5093965;28;19948;-75
2022/04/03 11:28:26;;;;;;;;;;;10.30;99.90;;;;;;5092793;28;19978;-75
2022/04/03 11:30:51;;;;;;;;;;;10.30;99.90;;;;;;5093743;28;19913;-75
2022/04/03 11:33:17;;;;;;;;;;;10.30;99.90;;;;;;5093836;28;20249;-75
2022/04/03 11:35:44;;;;;;;;;;;10.10;99.90;;;;;;5093598;28;20011;-75
2022/04/03 11:38:10;;;;;;;;;;;10.10;99.90;;;;;;5093173;28;19920;-75
2022/04/03 11:40:36;;;;;;;;;;;10.30;99.90;;;;;;5093741;28;19912;-75
2022/04/03 11:43:07;;;;;;;;;;;10.50;99.90;;;;;;5091817;28;20269;-75
2022/04/03 11:45:32;;;;;;;;;;;10.60;99.90;;;;;;5093876;28;19908;-75
2022/04/03 11:48:17;;;;;;;;;;;10.60;99.90;;;;;;5092873;28;19920;-75
2022/04/03 11:50:42;;;;;;;;;;;10.70;99.90;;;;;;5093552;28;20327;-75
2022/04/03 11:53:08;;;;;;;;;;;10.70;99.90;;;;;;5093014;28;19908;-75
2022/04/03 11:55:35;;;;;;;;;;;10.80;99.90;;;;;;5093681;28;19908;-75
2022/04/03 11:58:04;;;;;;;;;;;10.90;99.90;;;;;;5093176;28;19908;-75
2022/04/03 12:00:32;;;;;;;;;;;11.00;99.90;;;;;;5093306;28;19927;-75
2022/04/03 12:02:58;;;;;;;;;;;10.90;99.90;;;;;;5092869;28;19946;-75
2022/04/03 12:05:24;;;;;;;;;;;10.80;99.90;;;;;;5091752;28;20046;-75
2022/04/03 12:07:50;;;;;;;;;;;10.90;99.90;;;;;;5093221;28;19912;-75
2022/04/03 12:10:26;;;;;;;;;;;11.00;99.90;;;;;;5092600;28;20415;-75
2022/04/03 12:12:53;;;;;;;;;;;11.00;99.90;;;;;;5093044;28;19916;-75
2022/04/03 12:15:19;;;;;;;;;;;11.10;99.90;;;;;;5092571;28;19908;-75
2022/04/03 12:17:45;;;;;;;;;;;11.20;99.90;;;;;;5092398;28;20004;-75
2022/04/03 12:20:12;;;;;;;;;;;11.20;99.90;;;;;;5091977;28;19962;-76
2022/04/03 12:22:40;;;;;;;;;;;11.20;99.90;;;;;;5093376;28;19908;-75
2022/04/03 12:25:07;;;;;;;;;;;11.10;99.90;;;;;;5093241;28;19912;-75
2022/04/03 12:27:34;;;;;;;;;;;11.00;99.90;;;;;;5093046;28;19912;-75
2022/04/03 12:30:00;;;;;;;;;;;10.80;99.90;;;;;;5091693;28;19919;-75
2022/04/03 12:32:25;;;;;;;;;;;10.70;99.90;;;;;;5092430;28;19912;-76
2022/04/03 12:34:52;;;;;;;;;;;10.70;99.90;;;;;;5092911;28;20379;-75
2022/04/03 12:37:18;;;;;;;;;;;10.80;99.90;;;;;;5092272;28;19957;-75
2022/04/03 12:39:45;;;;;;;;;;;10.90;99.90;;;;;;5092995;28;19915;-75
2022/04/03 12:42:13;;;;;;;;;;;11.10;99.90;;;;;;5092430;28;19958;-76
2022/04/03 12:44:42;;;;;;;;;;;11.40;99.90;;;;;;5094149;28;20053;-76
2022/04/03 12:47:12;;;;;;;;;;;11.50;99.90;;;;;;5097025;28;19915;-76
2022/04/03 12:49:40;;;;;;;;;;;11.60;99.90;;;;;;5091747;28;19920;-76
2022/04/03 12:52:06;;;;;;;;;;;11.50;99.90;;;;;;5093631;28;19992;-76
2022/04/03 12:54:44;;;;;;;;;;;11.40;99.90;;;;;;5093188;28;19955;-75
2022/04/03 13:00:05;;;;;;;;;;;11.50;99.90;;;;;;5091808;28;19978;-75
2022/04/03 13:02:38;;;;;;;;;;;11.70;99.90;;;;;;5092585;28;20345;-76
2022/04/03 13:05:03;;;;;;;;;;;11.90;99.90;;;;;;5092164;28;19915;-76
2022/04/03 13:07:29;;;;;;;;;;;12.10;99.90;;;;;;5092410;28;19916;-76
2022/04/03 13:09:56;;;;;;;;;;;12.30;99.90;;;;;;5091351;28;19919;-76
2022/04/03 13:12:31;;;;;;;;;;;12.10;99.90;;;;;;5091959;28;19954;-76
2022/04/03 13:14:59;;;;;;;;;;;12.00;99.90;;;;;;5092425;28;19920;-76
2022/04/03 13:17:26;;;;;;;;;;;12.00;99.90;;;;;;5092669;28;19908;-76
2022/04/03 13:19:52;;;;;;;;;;;12.00;99.90;;;;;;5092129;28;19908;-75
2022/04/03 13:22:17;;;;;;;;;;;12.00;99.90;;;;;;5092312;28;19908;-75
2022/04/03 13:24:43;;;;;;;;;;;11.90;99.90;;;;;;5092401;28;19961;-76
2022/04/03 13:27:09;;;;;;;;;;;11.90;99.90;;;;;;5092037;28;19915;-76
2022/04/03 13:29:38;;;;;;;;;;;12.00;99.90;;;;;;5094902;28;20375;-75
2022/04/03 13:32:04;;;;;;;;;;;12.20;99.90;;;;;;5097181;28;19916;-76
2022/04/03 13:34:29;;;;;;;;;;;12.20;99.90;;;;;;5099277;28;19908;-76
2022/04/03 13:36:55;;;;;;;;;;;12.20;99.90;;;;;;5104017;28;19967;-76
2022/04/03 13:39:21;;;;;;;;;;;12.30;99.90;;;;;;5103110;28;20668;-76
2022/04/03 13:41:48;;;;;;;;;;;12.20;99.90;;;;;;5096317;28;19908;-76
2022/04/03 13:44:14;;;;;;;;;;;12.20;99.90;;;;;;5095775;28;19912;-76
2022/04/03 13:46:40;;;;;;;;;;;12.20;99.90;;;;;;5096283;28;19915;-76
2022/04/03 13:49:06;;;;;;;;;;;12.30;99.90;;;;;;5095377;28;19920;-75
2022/04/03 13:51:32;;;;;;;;;;;12.30;99.90;;;;;;5095982;28;20002;-78
2022/04/03 13:53:57;;;;;;;;;;;12.30;99.90;;;;;;5093654;28;20003;-76
2022/04/03 13:56:24;;;;;;;;;;;12.30;99.90;;;;;;5095422;28;20007;-76
2022/04/03 13:58:51;;;;;;;;;;;12.30;99.90;;;;;;5095540;28;19960;-76
2022/04/03 14:01:17;;;;;;;;;;;12.30;99.90;;;;;;5094794;28;20265;-76
2022/04/03 14:03:46;;;;;;;;;;;12.40;99.90;;;;;;5095135;28;19982;-76
2022/04/03 14:06:11;;;;;;;;;;;12.40;99.90;;;;;;5093327;28;19908;-76
2022/04/03 14:08:37;;;;;;;;;;;12.40;99.90;;;;;;5095691;28;19912;-76
2022/04/03 14:11:03;;;;;;;;;;;12.30;99.90;;;;;;5094024;28;20423;-76
2022/04/03 14:13:30;;;;;;;;;;;12.30;99.90;;;;;;5095635;28;20357;-76
2022/04/03 14:15:57;;;;;;;;;;;12.30;99.90;;;;;;5095606;28;20352;-76
2022/04/03 14:18:25;;;;;;;;;;;12.20;99.90;;;;;;5094965;28;19908;-76
2022/04/03 14:20:54;;;;;;;;;;;12.10;99.90;;;;;;5095413;28;19977;-76
2022/04/03 14:23:23;;;;;;;;;;;12.10;99.90;;;;;;5094626;28;19918;-76
2022/04/03 14:25:49;;;;;;;;;;;12.30;99.90;;;;;;5094999;28;19912;-76
2022/04/03 14:28:15;;;;;;;;;;;12.30;99.90;;;;;;5100360;28;19975;-77